Time;durP1;ratioP1;P1;durP2;ratioP2;P2;SDS_P1;SDS_P2;PMS_P1;PMS_P2;Temp;Humidity;BMP_temperature;BMP_pressure;BME280_temperature;BME280_humidity;BME280_pressure;Samples;Min_cycle;Max_cycle;Signal;HPM_P1;HPM_P2
2021/12/26 00:00:59;;;;;;;13.60;9.95;;;5.40;88.10;;;;;;5014377;28;20025;-76
2021/12/26 00:03:27;;;;;;;14.40;9.50;;;5.30;87.90;;;;;;5047797;28;20022;-77
2021/12/26 00:05:54;;;;;;;13.70;9.60;;;5.30;88.00;;;;;;5015499;28;20060;-77
2021/12/26 00:08:21;;;;;;;12.60;8.02;;;5.30;87.80;;;;;;5029990;28;20618;-76
2021/12/26 00:10:48;;;;;;;14.88;10.50;;;5.40;86.00;;;;;;5014454;28;20026;-75
2021/12/26 00:13:18;;;;;;;19.27;12.02;;;5.50;86.60;;;;;;5051873;28;20034;-76
2021/12/26 00:15:44;;;;;;;13.70;9.05;;;5.40;87.80;;;;;;4996464;28;20089;-76
2021/12/26 00:18:10;;;;;;;14.00;9.77;;;5.40;88.10;;;;;;4995726;28;20114;-77
2021/12/26 00:20:37;;;;;;;12.57;9.57;;;5.40;87.90;;;;;;4995476;28;20030;-76
2021/12/26 00:23:04;;;;;;;11.88;8.32;;;5.40;87.80;;;;;;4993900;28;20037;-77
2021/12/26 00:25:30;;;;;;;12.93;8.00;;;5.40;87.60;;;;;;4995277;28;20033;-76
2021/12/26 00:27:56;;;;;;;11.02;7.13;;;5.40;88.00;;;;;;4995584;28;20027;-76
2021/12/26 00:30:23;;;;;;;9.43;6.07;;;5.40;87.50;;;;;;4997627;28;20022;-76
2021/12/26 00:32:49;;;;;;;11.27;7.63;;;5.40;86.50;;;;;;4994147;28;20540;-77
2021/12/26 00:35:16;;;;;;;13.68;8.70;;;5.40;86.60;;;;;;4993989;28;20034;-76
2021/12/26 00:37:43;;;;;;;9.23;6.47;;;5.50;87.30;;;;;;4991511;28;20032;-77
2021/12/26 00:40:11;;;;;;;9.57;6.72;;;5.40;87.60;;;;;;4997821;28;20018;-76
2021/12/26 00:42:39;;;;;;;9.10;5.72;;;5.40;87.20;;;;;;4994881;28;20019;-76
2021/12/26 00:45:06;;;;;;;14.40;9.27;;;5.40;87.10;;;;;;4995574;28;20033;-76
2021/12/26 00:47:33;;;;;;;9.82;6.28;;;5.40;87.20;;;;;;4995910;28;20019;-76
2021/12/26 00:49:59;;;;;;;21.73;13.95;;;5.40;87.30;;;;;;4995310;28;20022;-75
2021/12/26 00:52:25;;;;;;;17.27;11.63;;;5.40;87.70;;;;;;5009281;28;20217;-76
2021/12/26 00:54:52;;;;;;;18.95;11.35;;;5.40;87.50;;;;;;4994503;28;20031;-75
2021/12/26 00:57:18;;;;;;;16.38;10.07;;;5.30;87.40;;;;;;4994933;28;20486;-76
2021/12/26 00:59:46;;;;;;;290.60;23.65;;;5.30;87.40;;;;;;4994956;28;20034;-76
2021/12/26 01:02:13;;;;;;;32.35;11.13;;;5.30;87.30;;;;;;4993017;28;20023;-76
2021/12/26 01:04:39;;;;;;;41.90;12.90;;;5.20;87.20;;;;;;4995503;28;20026;-76
2021/12/26 01:07:12;;;;;;;27.05;13.40;;;5.20;86.90;;;;;;4993060;28;20046;-75
2021/12/26 01:09:38;;;;;;;16.10;10.23;;;5.30;86.40;;;;;;4994343;28;20026;-74
2021/12/26 01:12:12;;;;;;;18.48;11.93;;;5.30;85.60;;;;;;4994505;28;20097;-75
2021/12/26 01:14:46;;;;;;;27.58;14.43;;;5.40;85.80;;;;;;5005563;28;20141;-77
2021/12/26 01:17:15;;;;;;;23.20;12.20;;;5.30;86.70;;;;;;5014096;28;20353;-76
2021/12/26 01:19:48;;;;;;;18.20;11.52;;;5.40;86.00;;;;;;5013778;28;20495;-76
2021/12/26 01:22:17;;;;;;;17.80;10.68;;;5.40;86.20;;;;;;5013638;28;20499;-76
2021/12/26 01:24:45;;;;;;;25.73;14.77;;;5.40;86.30;;;;;;5014417;28;20037;-76
2021/12/26 01:27:11;;;;;;;22.35;13.57;;;5.30;86.70;;;;;;5012804;28;20426;-75
2021/12/26 01:29:38;;;;;;;17.95;10.82;;;5.20;87.10;;;;;;5014487;28;20034;-76
2021/12/26 01:32:05;;;;;;;18.55;12.10;;;5.30;86.00;;;;;;5037620;28;20338;-77
2021/12/26 01:34:32;;;;;;;11.98;7.55;;;5.30;86.30;;;;;;5016715;28;20030;-76
2021/12/26 01:36:58;;;;;;;18.63;11.73;;;5.30;86.20;;;;;;5017425;28;20033;-75
2021/12/26 01:39:25;;;;;;;16.35;10.48;;;5.30;86.50;;;;;;5017175;28;20411;-76
2021/12/26 01:41:52;;;;;;;14.40;10.32;;;5.30;86.70;;;;;;5017622;28;20314;-76
2021/12/26 01:44:18;;;;;;;15.20;9.43;;;5.30;86.20;;;;;;5018184;28;20026;-76
2021/12/26 01:46:49;;;;;;;24.27;12.88;;;5.30;86.40;;;;;;5040155;28;20058;-76
2021/12/26 01:49:18;;;;;;;16.98;9.82;;;5.20;87.10;;;;;;5017239;28;20030;-76
2021/12/26 01:51:47;;;;;;;13.65;8.15;;;5.20;86.80;;;;;;5018319;28;20708;-77
2021/12/26 01:54:16;;;;;;;20.27;12.50;;;5.20;86.70;;;;;;5021067;28;20049;-76
2021/12/26 01:56:42;;;;;;;16.02;10.90;;;5.20;87.40;;;;;;5018115;28;20030;-76
2021/12/26 01:59:11;;;;;;;17.40;11.15;;;5.10;87.70;;;;;;5050041;28;20040;-76
2021/12/26 02:01:36;;;;;;;23.70;14.50;;;5.10;87.00;;;;;;5014062;28;20450;-76
2021/12/26 02:04:03;;;;;;;16.77;11.27;;;5.10;87.70;;;;;;5000855;28;20053;-76
2021/12/26 02:06:29;;;;;;;15.80;10.98;;;5.10;87.60;;;;;;5021570;28;20429;-76
2021/12/26 02:08:56;;;;;;;10.27;6.90;;;5.10;86.50;;;;;;5016838;28;20041;-76
2021/12/26 02:11:21;;;;;;;12.38;8.30;;;5.20;85.80;;;;;;5017773;28;20042;-76
2021/12/26 02:13:47;;;;;;;8.15;6.00;;;5.20;86.90;;;;;;5016027;28;20419;-79
2021/12/26 02:16:13;;;;;;;9.05;5.88;;;5.20;86.50;;;;;;5009692;28;20026;-75
2021/12/26 02:18:40;;;;;;;8.50;6.15;;;5.30;86.00;;;;;;5018079;28;20026;-76
2021/12/26 02:28:44;;;;;;;9.63;6.65;;;5.20;87.50;;;;;;5017317;28;20061;-76
2021/12/26 02:31:11;;;;;;;9.70;6.47;;;5.20;89.10;;;;;;5017464;28;20022;-76
2021/12/26 02:33:37;;;;;;;12.98;8.73;;;5.20;88.30;;;;;;5017400;28;20076;-77
2021/12/26 02:36:04;;;;;;;16.88;11.02;;;5.20;88.90;;;;;;5016935;28;20057;-77
2021/12/26 02:38:30;;;;;;;11.10;7.80;;;5.10;89.10;;;;;;5016092;28;20032;-76
2021/12/26 02:40:57;;;;;;;13.15;8.95;;;5.10;89.10;;;;;;5017482;28;20028;-77
2021/12/26 02:43:25;;;;;;;16.10;10.68;;;5.00;89.50;;;;;;5017435;28;20057;-76
2021/12/26 02:45:54;;;;;;;10.55;7.38;;;4.90;89.40;;;;;;5045160;28;20378;-77
2021/12/26 02:48:20;;;;;;;9.32;7.03;;;4.90;88.70;;;;;;5009739;28;20026;-76
2021/12/26 02:50:52;;;;;;;18.30;9.20;;;4.90;87.70;;;;;;5015184;28;20468;-76
2021/12/26 02:53:20;;;;;;;17.17;9.93;;;4.90;88.90;;;;;;5014649;28;20026;-75
2021/12/26 02:55:54;;;;;;;13.95;9.80;;;4.80;88.50;;;;;;5015781;28;20034;-76
2021/12/26 02:58:20;;;;;;;32.08;12.32;;;4.80;88.80;;;;;;5014798;28;20079;-76
2021/12/26 03:00:54;;;;;;;49.28;10.20;;;4.70;89.10;;;;;;5035882;28;20088;-76
2021/12/26 03:03:19;;;;;;;44.42;9.70;;;4.70;88.70;;;;;;5014019;28;20026;-77
2021/12/26 03:05:47;;;;;;;33.45;10.32;;;4.70;87.60;;;;;;5012799;28;20033;-75
2021/12/26 03:08:18;;;;;;;37.65;12.75;;;4.60;89.10;;;;;;5014160;28;20037;-76
2021/12/26 03:10:44;;;;;;;128.55;16.42;;;4.60;88.70;;;;;;5015347;28;20026;-76
2021/12/26 03:13:12;;;;;;;118.43;14.18;;;4.60;88.40;;;;;;5015405;28;20033;-77
2021/12/26 03:15:38;;;;;;;35.22;11.25;;;4.50;88.00;;;;;;5013372;28;20069;-76
2021/12/26 03:18:05;;;;;;;37.35;11.80;;;4.50;88.40;;;;;;5011315;28;20104;-76
2021/12/26 03:20:34;;;;;;;96.07;13.18;;;4.50;88.60;;;;;;5015214;28;20032;-76
2021/12/26 03:23:01;;;;;;;217.38;18.13;;;4.40;88.00;;;;;;5013149;28;20022;-76
2021/12/26 03:25:28;;;;;;;67.40;12.23;;;4.30;89.00;;;;;;5014063;28;20026;-77
2021/12/26 03:27:54;;;;;;;153.93;16.27;;;4.20;88.00;;;;;;5013258;28;20032;-78
2021/12/26 03:30:23;;;;;;;293.17;19.27;;;4.20;88.00;;;;;;5045610;28;20346;-77
2021/12/26 03:32:50;;;;;;;72.90;11.52;;;4.10;88.10;;;;;;5015647;28;20034;-76
2021/12/26 03:35:18;;;;;;;25.83;8.88;;;4.10;87.90;;;;;;5013752;28;20037;-77
2021/12/26 03:37:44;;;;;;;10.35;7.32;;;4.10;87.30;;;;;;5014666;28;20056;-78
2021/12/26 03:40:10;;;;;;;120.90;13.05;;;4.10;86.20;;;;;;5015086;28;20053;-76
2021/12/26 03:42:36;;;;;;;67.63;9.75;;;4.10;87.00;;;;;;5030980;28;20327;-77
2021/12/26 03:45:05;;;;;;;40.28;10.40;;;4.10;87.00;;;;;;5014136;28;20021;-77
2021/12/26 03:47:31;;;;;;;29.65;8.68;;;4.10;86.80;;;;;;5013756;28;20121;-77
2021/12/26 03:49:57;;;;;;;62.13;9.70;;;4.10;86.70;;;;;;5017453;28;20029;-77
2021/12/26 03:52:24;;;;;;;162.55;13.43;;;4.10;87.10;;;;;;5030275;28;20029;-76
2021/12/26 03:54:51;;;;;;;133.70;13.88;;;4.10;87.40;;;;;;5015093;28;20034;-76
2021/12/26 03:57:17;;;;;;;38.30;8.40;;;4.00;86.70;;;;;;5015282;28;20327;-76
2021/12/26 03:59:43;;;;;;;169.18;15.07;;;4.00;87.10;;;;;;5015397;28;20022;-77
2021/12/26 04:02:08;;;;;;;111.32;12.73;;;4.00;86.40;;;;;;5017246;28;20099;-77
2021/12/26 04:04:34;;;;;;;65.88;10.65;;;4.00;86.70;;;;;;5016124;28;20022;-76
2021/12/26 04:06:59;;;;;;;23.83;9.10;;;3.90;86.60;;;;;;5015453;28;20784;-76
2021/12/26 04:09:25;;;;;;;58.05;11.48;;;3.90;86.70;;;;;;5014214;28;20311;-77
2021/12/26 04:11:51;;;;;;;171.45;15.43;;;3.90;86.40;;;;;;5014274;28;20048;-76
2021/12/26 04:14:17;;;;;;;89.50;12.40;;;3.90;86.30;;;;;;5019026;28;20057;-76
2021/12/26 04:16:44;;;;;;;73.50;11.75;;;4.00;86.00;;;;;;5015058;28;20046;-76
2021/12/26 04:19:10;;;;;;;113.93;13.60;;;3.90;86.50;;;;;;5014754;28;20029;-76
2021/12/26 04:21:36;;;;;;;50.70;9.52;;;4.00;85.40;;;;;;5017518;28;20406;-76
2021/12/26 04:24:02;;;;;;;18.60;8.95;;;4.00;85.60;;;;;;5013761;28;20035;-76
2021/12/26 04:26:30;;;;;;;124.20;15.20;;;4.00;85.50;;;;;;5014924;28;20314;-76
2021/12/26 04:28:55;;;;;;;32.20;9.52;;;4.00;86.20;;;;;;5014723;28;20026;-76
2021/12/26 04:31:21;;;;;;;45.50;10.15;;;4.00;86.10;;;;;;5014357;28;20040;-76
2021/12/26 04:33:49;;;;;;;41.60;10.48;;;4.00;85.10;;;;;;5015304;28;20026;-76
2021/12/26 04:36:15;;;;;;;19.70;8.73;;;4.00;85.40;;;;;;5013960;28;20076;-76
2021/12/26 04:38:41;;;;;;;26.85;10.00;;;4.00;86.20;;;;;;5014262;28;20127;-77
2021/12/26 04:41:07;;;;;;;20.67;9.70;;;4.00;86.10;;;;;;5015503;28;20022;-76
2021/12/26 04:43:37;;;;;;;56.60;22.15;;;4.00;85.80;;;;;;5013956;28;20022;-76
2021/12/26 04:46:05;;;;;;;34.03;14.63;;;4.00;85.60;;;;;;5014128;28;20018;-76
2021/12/26 04:48:32;;;;;;;21.63;10.63;;;4.00;85.70;;;;;;5016944;28;20026;-76
2021/12/26 04:50:59;;;;;;;29.70;13.23;;;4.00;85.20;;;;;;5015020;28;20523;-76
2021/12/26 04:53:24;;;;;;;35.28;12.05;;;4.00;85.20;;;;;;5012792;28;20034;-76
2021/12/26 04:55:50;;;;;;;21.88;10.70;;;4.00;85.20;;;;;;5013746;28;20491;-76
2021/12/26 04:58:16;;;;;;;45.95;12.65;;;4.10;84.70;;;;;;5014722;28;20049;-76
2021/12/26 05:00:42;;;;;;;16.63;11.55;;;4.10;85.30;;;;;;5018682;28;20430;-76
2021/12/26 05:03:08;;;;;;;17.83;12.02;;;4.20;84.90;;;;;;5014772;28;20026;-76
2021/12/26 05:05:35;;;;;;;18.63;11.68;;;4.10;85.50;;;;;;5016314;28;20026;-76
2021/12/26 05:08:02;;;;;;;17.52;11.43;;;4.20;85.80;;;;;;5016693;28;20100;-77
2021/12/26 05:10:29;;;;;;;17.70;10.90;;;4.20;85.50;;;;;;5022104;28;20033;-76
2021/12/26 05:12:56;;;;;;;21.25;12.35;;;4.20;85.60;;;;;;5018360;28;20022;-76
2021/12/26 05:15:22;;;;;;;32.53;14.35;;;4.20;86.00;;;;;;5018361;28;20049;-77
2021/12/26 05:17:50;;;;;;;24.17;13.25;;;4.20;86.50;;;;;;5018946;28;20029;-77
2021/12/26 05:20:18;;;;;;;31.15;14.07;;;4.10;86.50;;;;;;5018413;28;20442;-76
2021/12/26 05:22:45;;;;;;;22.10;13.10;;;4.10;86.10;;;;;;5019437;28;20028;-77
2021/12/26 05:25:10;;;;;;;34.17;16.10;;;4.10;85.50;;;;;;5020702;28;20017;-76
2021/12/26 05:27:38;;;;;;;29.77;16.23;;;4.10;86.00;;;;;;5016856;28;20034;-76
2021/12/26 05:30:06;;;;;;;32.30;16.17;;;4.10;86.20;;;;;;5020996;28;20026;-76
2021/12/26 05:32:32;;;;;;;29.55;16.00;;;4.10;85.60;;;;;;5017064;28;20076;-76
2021/12/26 05:34:58;;;;;;;32.15;15.52;;;4.10;85.50;;;;;;5019576;28;20030;-76
2021/12/26 05:37:24;;;;;;;15.68;10.35;;;4.20;85.20;;;;;;5019750;28;20036;-76
2021/12/26 05:39:50;;;;;;;27.35;13.60;;;4.20;85.70;;;;;;5018964;28;20026;-77
2021/12/26 05:42:16;;;;;;;14.57;10.07;;;4.20;85.70;;;;;;5019084;28;20029;-76
2021/12/26 05:44:46;;;;;;;25.55;13.88;;;4.20;85.50;;;;;;5016611;28;20419;-76
2021/12/26 05:47:13;;;;;;;14.95;10.30;;;4.20;85.70;;;;;;5018427;28;20458;-77
2021/12/26 05:49:39;;;;;;;16.20;10.85;;;4.20;85.70;;;;;;5019155;28;20453;-77
2021/12/26 05:52:06;;;;;;;21.13;12.57;;;4.20;85.70;;;;;;5015814;28;20061;-75
2021/12/26 05:54:31;;;;;;;16.65;10.70;;;4.20;85.90;;;;;;5019610;28;20062;-78
2021/12/26 05:56:57;;;;;;;44.72;22.40;;;4.20;85.60;;;;;;5017482;28;20371;-77
2021/12/26 05:59:23;;;;;;;29.23;18.70;;;4.30;85.80;;;;;;5019589;28;20026;-77
2021/12/26 06:01:49;;;;;;;32.72;19.55;;;4.20;85.50;;;;;;5017340;28;20018;-77
2021/12/26 06:04:14;;;;;;;46.33;26.35;;;4.30;85.70;;;;;;5017247;28;20060;-76
2021/12/26 06:06:46;;;;;;;27.70;17.15;;;4.30;85.60;;;;;;5020702;28;20057;-76
2021/12/26 06:09:12;;;;;;;20.45;12.27;;;4.30;85.70;;;;;;5016540;28;20033;-76
2021/12/26 06:11:38;;;;;;;29.55;15.32;;;4.30;85.90;;;;;;5016682;28;20318;-76
2021/12/26 06:14:04;;;;;;;18.67;10.48;;;4.30;85.60;;;;;;5017551;28;20042;-76
2021/12/26 06:16:29;;;;;;;13.88;8.80;;;4.30;85.70;;;;;;5016539;28;20092;-76
2021/12/26 06:18:55;;;;;;;17.02;12.07;;;4.30;85.90;;;;;;5018115;28;20022;-76
2021/12/26 06:21:21;;;;;;;14.90;10.52;;;4.30;85.80;;;;;;5017370;28;20022;-78
2021/12/26 06:23:51;;;;;;;16.13;10.98;;;4.30;85.70;;;;;;5017124;28;20049;-78
2021/12/26 06:26:22;;;;;;;15.40;10.88;;;4.30;85.70;;;;;;5014641;28;20079;-77
2021/12/26 06:28:48;;;;;;;20.00;12.05;;;4.30;86.10;;;;;;5032554;28;20037;-77
2021/12/26 06:31:14;;;;;;;32.22;12.52;;;4.30;86.30;;;;;;5016567;28;20025;-77
2021/12/26 06:33:40;;;;;;;18.83;8.27;;;4.20;86.70;;;;;;5017619;28;20088;-77
2021/12/26 06:36:07;;;;;;;15.15;9.82;;;4.20;86.10;;;;;;5031013;28;20026;-77
2021/12/26 06:38:34;;;;;;;119.80;17.48;;;4.30;85.30;;;;;;5017641;28;20117;-76
2021/12/26 06:41:04;;;;;;;35.10;14.00;;;4.30;86.10;;;;;;5019061;28;20310;-77
2021/12/26 06:43:31;;;;;;;21.77;12.65;;;4.30;86.30;;;;;;5017009;28;20111;-77
2021/12/26 06:45:57;;;;;;;49.80;13.32;;;4.30;86.20;;;;;;5016603;28;20296;-77
2021/12/26 06:48:23;;;;;;;42.63;15.15;;;4.30;86.10;;;;;;5018650;28;20037;-77
2021/12/26 06:50:50;;;;;;;30.25;15.02;;;4.30;86.30;;;;;;5037452;28;20045;-76
2021/12/26 06:53:17;;;;;;;21.02;11.63;;;4.30;86.40;;;;;;5016235;28;20112;-76
2021/12/26 06:55:42;;;;;;;24.23;14.38;;;4.20;86.70;;;;;;5016059;28;20091;-76
2021/12/26 06:58:08;;;;;;;38.72;17.33;;;4.30;85.90;;;;;;5014735;28;20104;-76
2021/12/26 07:00:35;;;;;;;37.40;19.40;;;4.30;86.70;;;;;;5016312;28;20030;-76
2021/12/26 07:03:01;;;;;;;27.67;18.23;;;4.30;86.10;;;;;;5018576;28;20018;-76
2021/12/26 07:05:26;;;;;;;24.83;15.40;;;4.20;86.70;;;;;;5018723;28;20354;-77
2021/12/26 07:07:52;;;;;;;27.73;17.30;;;4.30;85.80;;;;;;5016846;28;20029;-76
2021/12/26 07:10:18;;;;;;;16.15;11.50;;;4.30;86.30;;;;;;5017363;28;20022;-77
2021/12/26 07:12:44;;;;;;;22.23;13.63;;;4.20;87.20;;;;;;5014988;28;20073;-76
2021/12/26 07:15:11;;;;;;;16.55;11.13;;;4.20;87.10;;;;;;5015852;28;20434;-77
2021/12/26 07:17:38;;;;;;;24.77;15.48;;;4.10;86.30;;;;;;5017864;28;20038;-76
2021/12/26 07:20:05;;;;;;;18.45;12.77;;;4.20;86.00;;;;;;5017622;28;20018;-76
2021/12/26 07:22:30;;;;;;;23.15;14.80;;;4.20;86.60;;;;;;5013676;28;20017;-75
2021/12/26 07:24:56;;;;;;;20.10;12.30;;;4.30;86.60;;;;;;5014025;28;20026;-75
2021/12/26 07:27:22;;;;;;;13.57;9.88;;;4.30;86.60;;;;;;5013267;28;20058;-76
2021/12/26 07:29:49;;;;;;;23.10;14.15;;;4.30;86.40;;;;;;5011656;28;20025;-76
2021/12/26 07:32:17;;;;;;;22.92;14.38;;;4.30;86.30;;;;;;5013737;28;20026;-77
2021/12/26 07:34:43;;;;;;;38.50;24.08;;;4.40;86.10;;;;;;5014726;28;20025;-77
2021/12/26 07:37:09;;;;;;;43.40;27.63;;;4.40;86.70;;;;;;5010450;28;20052;-76
2021/12/26 07:39:36;;;;;;;26.35;18.95;;;4.50;86.90;;;;;;5013768;28;20054;-77
2021/12/26 07:42:02;;;;;;;25.50;17.63;;;4.40;86.80;;;;;;5006730;28;20030;-76
2021/12/26 07:44:28;;;;;;;25.02;17.48;;;4.40;87.20;;;;;;5010027;28;20049;-77
2021/12/26 07:46:53;;;;;;;24.55;17.50;;;4.50;87.10;;;;;;5008598;28;20320;-77
2021/12/26 07:49:21;;;;;;;32.47;21.00;;;4.40;88.20;;;;;;5009708;28;20026;-77
2021/12/26 07:51:48;;;;;;;35.28;22.80;;;4.40;87.40;;;;;;5009943;28;20030;-76
2021/12/26 07:54:16;;;;;;;33.05;22.17;;;4.40;87.10;;;;;;5007562;28;20332;-77
2021/12/26 07:56:42;;;;;;;26.35;17.48;;;4.50;87.30;;;;;;5009652;28;20448;-77
2021/12/26 07:59:08;;;;;;;26.48;17.75;;;4.60;86.30;;;;;;5011423;28;20108;-76
2021/12/26 08:01:34;;;;;;;21.85;14.90;;;4.60;87.20;;;;;;5014718;28;20025;-76
2021/12/26 08:04:02;;;;;;;22.73;14.95;;;4.70;87.00;;;;;;5013659;28;20463;-76
2021/12/26 08:06:29;;;;;;;21.33;12.70;;;4.70;87.30;;;;;;5015973;28;20037;-77
2021/12/26 08:08:56;;;;;;;9.90;6.15;;;4.90;86.50;;;;;;5011724;28;20161;-76
2021/12/26 08:11:22;;;;;;;15.40;9.80;;;5.00;86.50;;;;;;5012138;28;20048;-77
2021/12/26 08:13:47;;;;;;;6.43;3.80;;;5.10;87.20;;;;;;5013708;28;20045;-77
2021/12/26 08:16:14;;;;;;;5.35;3.70;;;5.20;87.40;;;;;;5011380;28;20418;-77
2021/12/26 08:18:40;;;;;;;4.75;3.20;;;5.30;88.10;;;;;;5030831;28;20030;-77
2021/12/26 08:21:06;;;;;;;11.35;7.47;;;5.40;88.60;;;;;;5019220;28;20026;-76
2021/12/26 08:23:32;;;;;;;25.65;16.90;;;5.40;89.70;;;;;;5005091;28;20030;-77
2021/12/26 08:25:57;;;;;;;20.63;14.93;;;5.40;91.60;;;;;;5011054;28;20057;-77
2021/12/26 08:28:23;;;;;;;23.20;15.55;;;5.20;91.50;;;;;;5012341;28;20121;-77
2021/12/26 08:30:49;;;;;;;24.40;16.60;;;5.20;91.10;;;;;;5012152;28;20135;-77
2021/12/26 08:33:15;;;;;;;20.42;13.32;;;5.20;91.10;;;;;;5019384;28;20049;-77
2021/12/26 08:35:43;;;;;;;21.15;15.50;;;5.20;91.80;;;;;;5019337;28;20790;-77
2021/12/26 08:38:09;;;;;;;26.67;16.77;;;5.10;92.70;;;;;;5012673;28;20024;-77
2021/12/26 08:40:35;;;;;;;28.85;19.55;;;5.10;92.20;;;;;;5014108;28;20080;-77
2021/12/26 08:43:01;;;;;;;49.22;33.05;;;5.20;92.90;;;;;;5014511;28;20026;-77
2021/12/26 08:45:27;;;;;;;30.45;23.02;;;5.10;93.70;;;;;;5025814;28;20040;-77
2021/12/26 08:48:00;;;;;;;29.33;18.92;;;5.10;93.30;;;;;;5033745;28;20025;-77
2021/12/26 08:50:26;;;;;;;29.50;21.52;;;5.10;93.70;;;;;;5019677;28;20029;-77
2021/12/26 08:52:53;;;;;;;42.63;29.85;;;5.10;93.70;;;;;;5029546;28;20030;-76
2021/12/26 08:55:20;;;;;;;38.95;28.85;;;5.10;93.60;;;;;;5018209;28;20407;-77
2021/12/26 08:57:47;;;;;;;54.15;40.03;;;5.30;93.40;;;;;;5016503;28;20038;-77
2021/12/26 09:00:14;;;;;;;27.40;19.08;;;5.30;93.90;;;;;;5017285;28;20030;-77
2021/12/26 09:02:40;;;;;;;25.38;18.00;;;5.20;94.10;;;;;;5020032;28;20034;-77
2021/12/26 09:05:06;;;;;;;24.70;16.73;;;5.30;93.80;;;;;;5023885;28;20434;-77
2021/12/26 09:07:32;;;;;;;26.88;16.35;;;5.40;93.60;;;;;;5016249;28;20030;-76
2021/12/26 09:09:58;;;;;;;12.25;7.93;;;5.40;94.20;;;;;;5018194;28;20033;-77
2021/12/26 09:12:24;;;;;;;18.08;11.40;;;5.60;93.80;;;;;;5018441;28;20033;-77
2021/12/26 09:14:51;;;;;;;9.52;6.78;;;5.70;93.60;;;;;;5017907;28;20049;-77
2021/12/26 09:17:16;;;;;;;6.38;4.28;;;5.80;94.20;;;;;;5018150;28;20451;-78
2021/12/26 09:19:42;;;;;;;5.13;3.58;;;5.90;94.50;;;;;;5018622;28;20068;-78
2021/12/26 09:22:10;;;;;;;5.45;3.72;;;6.00;95.10;;;;;;5023710;28;20029;-78
2021/12/26 09:24:38;;;;;;;8.27;5.20;;;6.00;95.60;;;;;;5017866;28;20022;-78
2021/12/26 09:27:04;;;;;;;5.20;3.50;;;6.10;95.60;;;;;;5020476;28;20041;-78
2021/12/26 09:29:31;;;;;;;7.13;4.88;;;6.20;96.00;;;;;;5017607;28;20021;-77
2021/12/26 09:31:56;;;;;;;7.05;4.97;;;6.20;96.50;;;;;;5016723;28;20026;-78
2021/12/26 09:34:23;;;;;;;5.35;3.03;;;6.30;96.70;;;;;;5017836;28;20036;-78
2021/12/26 09:36:50;;;;;;;10.07;6.63;;;6.30;97.40;;;;;;5016811;28;20331;-77
2021/12/26 09:39:16;;;;;;;7.60;4.72;;;6.30;97.90;;;;;;5019928;28;20029;-77
2021/12/26 09:41:42;;;;;;;5.70;3.88;;;6.40;97.40;;;;;;5023664;28;20032;-77
2021/12/26 09:44:08;;;;;;;6.60;4.78;;;6.50;97.50;;;;;;5018210;28;20087;-77
2021/12/26 09:46:35;;;;;;;5.63;3.20;;;6.50;97.90;;;;;;5022873;28;20158;-77
2021/12/26 09:49:01;;;;;;;8.32;6.00;;;6.60;98.00;;;;;;5018062;28;20109;-77
2021/12/26 09:51:28;;;;;;;7.65;5.95;;;6.60;98.00;;;;;;5019209;28;20442;-77
2021/12/26 09:53:53;;;;;;;3.95;2.13;;;6.60;98.00;;;;;;5015685;28;20046;-77
2021/12/26 09:56:19;;;;;;;4.90;3.08;;;6.70;98.00;;;;;;5027662;28;20034;-77
2021/12/26 09:59:13;;;;;;;6.38;4.15;;;6.60;98.00;;;;;;5019242;28;20033;-77
2021/12/26 10:01:47;;;;;;;5.20;3.42;;;6.70;98.00;;;;;;5017758;28;20038;-77
2021/12/26 10:04:32;;;;;;;6.93;4.47;;;6.80;97.70;;;;;;5028870;28;20049;-77
2021/12/26 10:07:15;;;;;;;6.25;4.47;;;6.90;98.00;;;;;;5021048;28;20037;-77
2021/12/26 10:09:44;;;;;;;4.57;2.50;;;7.10;98.00;;;;;;5023716;28;20041;-78
2021/12/26 10:12:14;;;;;;;4.03;2.20;;;7.20;98.00;;;;;;5027234;28;20053;-77
2021/12/26 10:14:43;;;;;;;5.93;2.72;;;7.20;98.00;;;;;;5018391;28;20064;-77
2021/12/26 10:17:15;;;;;;;3.83;2.28;;;7.20;98.00;;;;;;5017981;28;20322;-77
2021/12/26 10:19:46;;;;;;;4.20;2.20;;;7.30;98.00;;;;;;5023169;28;20022;-77
2021/12/26 10:22:15;;;;;;;5.15;2.50;;;7.30;98.00;;;;;;5017201;28;20049;-77
2021/12/26 10:24:45;;;;;;;4.18;2.47;;;7.40;98.00;;;;;;5021627;28;20529;-77
2021/12/26 10:27:11;;;;;;;3.85;2.30;;;7.50;98.00;;;;;;5014332;28;20718;-77
2021/12/26 10:29:49;;;;;;;4.47;2.70;;;7.70;98.00;;;;;;5011357;28;20084;-77
2021/12/26 10:32:20;;;;;;;5.85;3.40;;;7.70;98.00;;;;;;5015640;28;20366;-77
2021/12/26 10:34:50;;;;;;;5.25;2.65;;;7.80;98.00;;;;;;5020352;28;20034;-77
2021/12/26 10:37:17;;;;;;;4.15;2.22;;;7.90;98.00;;;;;;5013668;28;20033;-76
2021/12/26 10:39:55;;;;;;;4.30;2.53;;;8.00;98.00;;;;;;5017721;28;20033;-76
2021/12/26 10:42:45;;;;;;;3.78;2.00;;;8.10;98.00;;;;;;5015914;28;20040;-76
2021/12/26 10:45:17;;;;;;;2.50;1.30;;;8.00;98.00;;;;;;5008228;28;20058;-76
2021/12/26 10:47:48;;;;;;;2.90;1.52;;;8.00;98.00;;;;;;5017017;28;20377;-77
2021/12/26 10:50:18;;;;;;;2.95;1.48;;;8.20;98.00;;;;;;5022376;28;20053;-77
2021/12/26 10:53:03;;;;;;;4.18;1.50;;;8.30;98.00;;;;;;5014447;28;20050;-77
2021/12/26 10:55:34;;;;;;;4.13;1.63;;;8.70;98.00;;;;;;5015567;28;20125;-77
2021/12/26 10:58:05;;;;;;;2.55;1.42;;;8.80;98.00;;;;;;5011309;28;20033;-77
2021/12/26 11:00:33;;;;;;;3.15;1.52;;;8.80;98.00;;;;;;5015280;28;20018;-77
2021/12/26 11:03:04;;;;;;;8.40;3.50;;;9.00;98.00;;;;;;5016619;28;20025;-77
2021/12/26 11:05:30;;;;;;;9.02;5.50;;;9.00;98.00;;;;;;5015497;28;20022;-77
2021/12/26 11:07:59;;;;;;;6.43;3.25;;;9.30;98.00;;;;;;5014593;28;20032;-77
2021/12/26 11:10:33;;;;;;;4.28;2.25;;;9.50;98.00;;;;;;5018098;28;20370;-76
2021/12/26 11:13:01;;;;;;;5.05;1.95;;;9.60;98.00;;;;;;5016301;28;20301;-77
2021/12/26 11:15:33;;;;;;;6.10;2.50;;;9.80;98.00;;;;;;5018970;28;20318;-77
2021/12/26 11:18:05;;;;;;;6.32;2.42;;;10.30;98.00;;;;;;5017007;28;20029;-77
2021/12/26 11:20:42;;;;;;;3.45;1.67;;;10.60;98.00;;;;;;5005339;28;20113;-77
2021/12/26 11:23:13;;;;;;;4.50;2.30;;;10.50;98.00;;;;;;5020723;28;20022;-77
2021/12/26 11:25:45;;;;;;;2.90;1.50;;;10.40;98.00;;;;;;5018259;28;20022;-77
2021/12/26 11:28:13;;;;;;;3.38;1.40;;;10.60;98.00;;;;;;5018471;28;20433;-77
2021/12/26 11:30:40;;;;;;;2.90;1.40;;;10.40;97.40;;;;;;5025366;28;20057;-76
2021/12/26 11:33:08;;;;;;;4.18;1.63;;;10.10;98.00;;;;;;5031892;28;20048;-77
2021/12/26 11:35:34;;;;;;;5.38;2.10;;;10.20;98.00;;;;;;5016726;28;20106;-77
2021/12/26 11:38:02;;;;;;;3.97;1.70;;;11.20;98.00;;;;;;5030089;28;20057;-76
2021/12/26 11:40:28;;;;;;;1.77;1.05;;;12.20;96.40;;;;;;5022246;28;20026;-77
2021/12/26 11:42:57;;;;;;;2.67;1.00;;;12.90;92.50;;;;;;5017955;28;20037;-77
2021/12/26 11:45:48;;;;;;;4.43;1.70;;;12.90;92.00;;;;;;5014965;28;20030;-75
2021/12/26 11:48:39;;;;;;;2.33;1.20;;;13.20;92.50;;;;;;5021694;28;20163;-77
2021/12/26 11:51:11;;;;;;;3.47;1.10;;;13.60;90.50;;;;;;5018098;28;20026;-77
2021/12/26 11:53:43;;;;;;;4.45;1.55;;;13.60;90.10;;;;;;5020120;28;20045;-76
2021/12/26 11:56:21;;;;;;;3.58;1.23;;;13.80;89.70;;;;;;5024736;28;20159;-76
2021/12/26 11:59:17;;;;;;;2.50;1.10;;;12.90;88.90;;;;;;5015799;28;20496;-76
2021/12/26 12:01:47;;;;;;;1.98;1.00;;;11.50;91.50;;;;;;5023934;28;20430;-76
2021/12/26 12:04:17;;;;;;;2.03;1.00;;;10.60;93.90;;;;;;5021536;28;20032;-76
2021/12/26 12:06:44;;;;;;;2.33;1.17;;;10.00;96.20;;;;;;5027909;28;20029;-76
2021/12/26 12:09:30;;;;;;;3.10;1.17;;;9.50;96.50;;;;;;5023593;28;20037;-77
2021/12/26 12:12:13;;;;;;;33.33;8.55;;;9.50;98.00;;;;;;5015182;28;20422;-76
2021/12/26 12:15:02;;;;;;;5.40;2.08;;;9.40;98.00;;;;;;5014147;28;20042;-77
2021/12/26 12:17:35;;;;;;;8.95;6.25;;;9.60;98.00;;;;;;5014464;28;20128;-77
2021/12/26 12:20:20;;;;;;;8.15;5.43;;;9.60;98.00;;;;;;5017438;28;20056;-77
2021/12/26 12:23:09;;;;;;;8.93;6.30;;;9.50;98.00;;;;;;5008920;28;20026;-75
2021/12/26 12:25:38;;;;;;;6.88;4.20;;;9.50;98.00;;;;;;5014124;28;20034;-76
2021/12/26 12:28:14;;;;;;;2.60;1.40;;;9.40;98.00;;;;;;5014698;28;20077;-76
2021/12/26 12:30:42;;;;;;;3.13;1.52;;;9.20;98.00;;;;;;5012567;28;20037;-76
2021/12/26 12:33:29;;;;;;;2.95;1.42;;;9.30;98.00;;;;;;5010659;28;20059;-76
2021/12/26 12:36:05;;;;;;;3.03;1.30;;;9.20;98.00;;;;;;5014806;28;20118;-76
2021/12/26 12:39:17;;;;;;;2.58;1.30;;;9.20;98.00;;;;;;5023098;28;20026;-76
2021/12/26 12:41:50;;;;;;;4.57;2.13;;;9.40;98.00;;;;;;5010836;28;20047;-76
2021/12/26 12:44:35;;;;;;;4.00;1.90;;;9.70;98.00;;;;;;5021042;28;20068;-76
2021/12/26 12:47:17;;;;;;;16.15;11.25;;;10.10;98.00;;;;;;5034132;28;20057;-76
2021/12/26 12:49:54;;;;;;;17.55;11.40;;;10.20;98.00;;;;;;5013681;28;20105;-76
2021/12/26 12:52:41;;;;;;;15.65;9.68;;;9.90;98.00;;;;;;5016334;28;20034;-76
2021/12/26 12:55:08;;;;;;;8.32;5.13;;;9.90;98.00;;;;;;5014275;28;20323;-76
2021/12/26 12:57:43;;;;;;;14.50;9.48;;;10.30;98.00;;;;;;5005746;28;20482;-76